EFW19YZ LFBD-EGKK
Flight info
| Callsign | EFW19YZ |
|---|---|
| Flight time | 1h 13m |
| Altitude | 34000 |
| Route | CNA DCT MANAK UY110 REN UP87 REVTU UP88 VASUX |
| Aircraft | A321/M-SDE3FGIJ1KRWXY/SB1 |
Departure
| Time | 2026-05-05 19:21 |
|---|---|
| Airport | Bordeaux–Mérignac Airport (LFBD) |
Arrival
| Time | 2026-05-05 20:34 |
|---|---|
| Airport | London Gatwick Airport (EGKK) |
| Time | Latitude | Longitude | Altitude | Speed | Heading |
|---|---|---|---|---|---|
| 2026-05-05 18:42 | 44.83357 | -0.70190 | 166 ft | 0 kts | 133° |
| 2026-05-05 19:14 | 44.83369 | -0.70207 | 165 ft | 3 kts | 135° |
| 2026-05-05 19:14 | 44.83382 | -0.70226 | 165 ft | 3 kts | 142° |
| 2026-05-05 19:14 | 44.83394 | -0.70236 | 165 ft | 3 kts | 199° |
| 2026-05-05 19:15 | 44.83407 | -0.70221 | 165 ft | 3 kts | 236° |
| 2026-05-05 19:15 | 44.83419 | -0.70198 | 164 ft | 3 kts | 228° |
| 2026-05-05 19:15 | 44.83422 | -0.70193 | 164 ft | 0 kts | 225° |
| 2026-05-05 19:17 | 44.83417 | -0.70201 | 164 ft | 2 kts | 225° |
| 2026-05-05 19:17 | 44.83401 | -0.70223 | 165 ft | 4 kts | 225° |
| 2026-05-05 19:17 | 44.83375 | -0.70259 | 164 ft | 6 kts | 225° |
| 2026-05-05 19:18 | 44.83355 | -0.70313 | 164 ft | 7 kts | 269° |
| 2026-05-05 19:18 | 44.83389 | -0.70330 | 164 ft | 6 kts | 12° |
| 2026-05-05 19:18 | 44.83425 | -0.70287 | 165 ft | 8 kts | 46° |
| 2026-05-05 19:18 | 44.83466 | -0.70227 | 165 ft | 9 kts | 46° |
| 2026-05-05 19:19 | 44.83516 | -0.70155 | 164 ft | 11 kts | 46° |
| 2026-05-05 19:19 | 44.83573 | -0.70072 | 164 ft | 13 kts | 45° |
| 2026-05-05 19:19 | 44.83648 | -0.70005 | 164 ft | 13 kts | 6° |
| 2026-05-05 19:19 | 44.83746 | -0.70057 | 160 ft | 17 kts | 335° |
| 2026-05-05 19:20 | 44.83806 | -0.70172 | 163 ft | 15 kts | 257° |
| 2026-05-05 19:20 | 44.83731 | -0.70297 | 162 ft | 22 kts | 226° |
| 2026-05-05 19:20 | 44.83448 | -0.70703 | 164 ft | 95 kts | 225° |
| 2026-05-05 19:20 | 44.82825 | -0.71596 | 180 ft | 155 kts | 227° |
| 2026-05-05 19:21 | 44.82092 | -0.72564 | 1140 ft | 130 kts | 226° |
| 2026-05-05 19:21 | 44.81466 | -0.73433 | 1858 ft | 130 kts | 230° |
| 2026-05-05 19:21 | 44.80812 | -0.74352 | 2314 ft | 138 kts | 230° |
| 2026-05-05 19:21 | 44.80095 | -0.75400 | 2631 ft | 159 kts | 230° |
| 2026-05-05 19:22 | 44.79274 | -0.76602 | 2944 ft | 181 kts | 230° |
| 2026-05-05 19:22 | 44.78469 | -0.78036 | 3188 ft | 199 kts | 249° |
| 2026-05-05 19:22 | 44.78470 | -0.80011 | 3376 ft | 216 kts | 292° |
| 2026-05-05 19:22 | 44.79540 | -0.81621 | 3542 ft | 245 kts | 334° |
| 2026-05-05 19:23 | 44.81240 | -0.82181 | 4167 ft | 258 kts | 353° |
| 2026-05-05 19:23 | 44.83052 | -0.82229 | 4978 ft | 263 kts | 359° |
| 2026-05-05 19:23 | 44.84887 | -0.82132 | 5798 ft | 266 kts | 0° |
| 2026-05-05 19:23 | 44.86749 | -0.82042 | 6598 ft | 269 kts | 359° |
| 2026-05-05 19:24 | 44.88636 | -0.82007 | 7377 ft | 272 kts | 358° |
| 2026-05-05 19:24 | 44.90541 | -0.82024 | 8156 ft | 276 kts | 358° |
| 2026-05-05 19:24 | 44.92432 | -0.81697 | 8897 ft | 282 kts | 13° |
| 2026-05-05 19:24 | 44.94256 | -0.80612 | 9664 ft | 288 kts | 30° |
| 2026-05-05 19:25 | 44.95852 | -0.78846 | 10256 ft | 300 kts | 40° |
| 2026-05-05 19:25 | 44.97467 | -0.76812 | 10449 ft | 323 kts | 40° |
| 2026-05-05 19:25 | 44.99198 | -0.74630 | 10642 ft | 343 kts | 40° |
| 2026-05-05 19:25 | 45.00999 | -0.72358 | 11143 ft | 350 kts | 40° |
| 2026-05-05 19:26 | 45.02829 | -0.70051 | 11814 ft | 354 kts | 41° |
| 2026-05-05 19:26 | 45.04678 | -0.67723 | 12467 ft | 357 kts | 40° |
| 2026-05-05 19:26 | 45.06517 | -0.65407 | 13130 ft | 361 kts | 40° |
| 2026-05-05 19:26 | 45.08399 | -0.63032 | 13766 ft | 365 kts | 40° |
| 2026-05-05 19:27 | 45.10298 | -0.60635 | 14367 ft | 367 kts | 41° |
| 2026-05-05 19:27 | 45.12217 | -0.58213 | 14954 ft | 371 kts | 40° |
| 2026-05-05 19:27 | 45.14243 | -0.55935 | 15527 ft | 373 kts | 32° |
| 2026-05-05 19:27 | 45.16541 | -0.54221 | 16109 ft | 375 kts | 20° |
| 2026-05-05 19:28 | 45.19024 | -0.53032 | 16693 ft | 378 kts | 17° |
| 2026-05-05 19:28 | 45.21534 | -0.51889 | 17253 ft | 381 kts | 17° |
| 2026-05-05 19:28 | 45.24071 | -0.50720 | 17800 ft | 385 kts | 17° |
| 2026-05-05 19:28 | 45.26595 | -0.49545 | 18348 ft | 388 kts | 17° |
| 2026-05-05 19:29 | 45.29175 | -0.48342 | 18816 ft | 392 kts | 17° |
| 2026-05-05 19:29 | 45.31780 | -0.47128 | 19291 ft | 395 kts | 18° |
| 2026-05-05 19:29 | 45.34403 | -0.45909 | 19759 ft | 399 kts | 17° |
| 2026-05-05 19:29 | 45.37049 | -0.44681 | 20213 ft | 402 kts | 17° |
| 2026-05-05 19:30 | 45.39718 | -0.43442 | 20686 ft | 405 kts | 18° |
| 2026-05-05 19:30 | 45.42409 | -0.42189 | 21130 ft | 409 kts | 18° |
| 2026-05-05 19:30 | 45.45117 | -0.40926 | 21607 ft | 411 kts | 18° |
| 2026-05-05 19:30 | 45.47848 | -0.39650 | 22059 ft | 414 kts | 18° |
| 2026-05-05 19:31 | 45.50558 | -0.38383 | 22536 ft | 417 kts | 18° |
| 2026-05-05 19:31 | 45.53322 | -0.37088 | 22975 ft | 420 kts | 18° |
| 2026-05-05 19:31 | 45.56109 | -0.35779 | 23429 ft | 423 kts | 18° |
| 2026-05-05 19:31 | 45.58908 | -0.34470 | 23816 ft | 425 kts | 18° |
| 2026-05-05 19:32 | 45.61812 | -0.33613 | 24224 ft | 428 kts | 5° |
| 2026-05-05 19:32 | 45.64787 | -0.33664 | 24621 ft | 430 kts | 353° |
| 2026-05-05 19:32 | 45.67717 | -0.34612 | 24978 ft | 434 kts | 341° |
| 2026-05-05 19:32 | 45.70453 | -0.36424 | 25349 ft | 436 kts | 328° |
| 2026-05-05 19:33 | 45.72877 | -0.38936 | 25745 ft | 437 kts | 321° |
| 2026-05-05 19:33 | 45.75268 | -0.41633 | 26091 ft | 440 kts | 321° |
| 2026-05-05 19:33 | 45.77679 | -0.44358 | 26437 ft | 442 kts | 322° |
| 2026-05-05 19:33 | 45.80096 | -0.47091 | 26792 ft | 445 kts | 322° |
| 2026-05-05 19:34 | 45.82532 | -0.49843 | 27161 ft | 447 kts | 322° |
| 2026-05-05 19:34 | 45.84976 | -0.52606 | 27537 ft | 448 kts | 322° |
| 2026-05-05 19:34 | 45.87428 | -0.55389 | 27888 ft | 451 kts | 322° |
| 2026-05-05 19:35 | 45.92360 | -0.61004 | 28597 ft | 454 kts | 322° |
| 2026-05-05 19:35 | 45.94814 | -0.63797 | 28887 ft | 457 kts | 322° |
| 2026-05-05 19:35 | 45.97308 | -0.66640 | 29201 ft | 459 kts | 323° |
| 2026-05-05 19:35 | 45.99810 | -0.69490 | 29547 ft | 460 kts | 323° |
| 2026-05-05 19:36 | 46.02322 | -0.72354 | 29859 ft | 461 kts | 323° |
| 2026-05-05 19:36 | 46.04838 | -0.75229 | 30102 ft | 463 kts | 323° |
| 2026-05-05 19:36 | 46.07365 | -0.78119 | 30356 ft | 464 kts | 323° |
| 2026-05-05 19:36 | 46.09890 | -0.81014 | 30656 ft | 463 kts | 324° |
| 2026-05-05 19:37 | 46.12410 | -0.83904 | 30977 ft | 462 kts | 323° |
| 2026-05-05 19:37 | 46.14918 | -0.86786 | 31269 ft | 462 kts | 323° |
| 2026-05-05 19:37 | 46.17397 | -0.89644 | 31542 ft | 462 kts | 324° |
| 2026-05-05 19:37 | 46.19903 | -0.92536 | 31821 ft | 462 kts | 323° |
| 2026-05-05 19:38 | 46.22412 | -0.95432 | 32113 ft | 462 kts | 323° |
| 2026-05-05 19:38 | 46.24926 | -0.98334 | 32396 ft | 462 kts | 323° |
| 2026-05-05 19:38 | 46.27436 | -1.01232 | 32680 ft | 462 kts | 322° |
| 2026-05-05 19:38 | 46.29945 | -1.04130 | 32953 ft | 462 kts | 322° |
| 2026-05-05 19:39 | 46.32453 | -1.07032 | 33212 ft | 462 kts | 322° |
| 2026-05-05 19:39 | 46.34964 | -1.09946 | 33442 ft | 464 kts | 322° |
| 2026-05-05 19:39 | 46.37446 | -1.12833 | 33671 ft | 464 kts | 321° |
| 2026-05-05 19:39 | 46.39964 | -1.15765 | 33871 ft | 464 kts | 321° |
| 2026-05-05 19:40 | 46.42461 | -1.18678 | 33895 ft | 459 kts | 321° |
| 2026-05-05 19:40 | 46.47395 | -1.24436 | 33897 ft | 453 kts | 321° |
| 2026-05-05 19:41 | 46.52304 | -1.30182 | 33895 ft | 453 kts | 321° |
| 2026-05-05 19:41 | 46.57213 | -1.35940 | 33890 ft | 452 kts | 322° |
| 2026-05-05 19:42 | 46.62408 | -1.40873 | 33892 ft | 449 kts | 335° |
| 2026-05-05 19:42 | 46.68028 | -1.44816 | 33891 ft | 449 kts | 335° |
| 2026-05-05 19:43 | 46.73643 | -1.48805 | 33893 ft | 449 kts | 334° |
| 2026-05-05 19:43 | 46.79252 | -1.52799 | 33894 ft | 449 kts | 335° |
| 2026-05-05 19:44 | 46.84849 | -1.56704 | 33899 ft | 448 kts | 339° |
| 2026-05-05 19:44 | 46.90883 | -1.58743 | 33897 ft | 445 kts | 357° |
| 2026-05-05 19:45 | 46.97069 | -1.59337 | 33891 ft | 446 kts | 358° |
| 2026-05-05 19:45 | 47.03253 | -1.59969 | 33899 ft | 445 kts | 357° |
| 2026-05-05 19:46 | 47.09389 | -1.60610 | 33908 ft | 445 kts | 357° |
| 2026-05-05 19:46 | 47.15573 | -1.61246 | 33900 ft | 445 kts | 358° |
| 2026-05-05 19:47 | 47.21753 | -1.61978 | 33885 ft | 446 kts | 356° |
| 2026-05-05 19:47 | 47.27938 | -1.62863 | 33886 ft | 447 kts | 355° |
| 2026-05-05 19:48 | 47.34086 | -1.63730 | 33892 ft | 447 kts | 356° |
| 2026-05-05 19:48 | 47.40282 | -1.64588 | 33890 ft | 447 kts | 356° |
| 2026-05-05 19:49 | 47.46475 | -1.65472 | 33899 ft | 448 kts | 356° |
| 2026-05-05 19:49 | 47.52681 | -1.66362 | 33905 ft | 448 kts | 356° |
| 2026-05-05 19:50 | 47.58878 | -1.67248 | 33906 ft | 448 kts | 356° |
| 2026-05-05 19:50 | 47.65040 | -1.68128 | 33919 ft | 447 kts | 356° |
| 2026-05-05 19:51 | 47.71234 | -1.69005 | 33928 ft | 447 kts | 356° |
| 2026-05-05 19:51 | 47.77421 | -1.69883 | 33929 ft | 447 kts | 356° |
| 2026-05-05 19:52 | 47.83605 | -1.70782 | 33937 ft | 446 kts | 355° |
| 2026-05-05 19:52 | 47.89740 | -1.71679 | 33948 ft | 446 kts | 356° |
| 2026-05-05 19:53 | 47.95919 | -1.72576 | 33955 ft | 445 kts | 356° |
| 2026-05-05 19:53 | 48.02089 | -1.73464 | 33959 ft | 445 kts | 356° |
| 2026-05-05 19:54 | 48.08257 | -1.74187 | 33956 ft | 444 kts | 1° |
| 2026-05-05 19:54 | 48.14389 | -1.74247 | 33957 ft | 444 kts | 1° |
| 2026-05-05 19:55 | 48.20572 | -1.74324 | 33953 ft | 444 kts | 1° |
| 2026-05-05 19:55 | 48.26749 | -1.74399 | 33942 ft | 444 kts | 1° |
| 2026-05-05 19:56 | 48.32930 | -1.74479 | 33939 ft | 444 kts | 1° |
| 2026-05-05 19:56 | 48.39119 | -1.74564 | 33944 ft | 444 kts | 1° |
| 2026-05-05 19:57 | 48.45259 | -1.74631 | 33934 ft | 445 kts | 1° |
| 2026-05-05 19:57 | 48.51455 | -1.74705 | 33934 ft | 445 kts | 1° |
| 2026-05-05 19:58 | 48.57647 | -1.74784 | 33946 ft | 445 kts | 1° |
| 2026-05-05 19:58 | 48.63848 | -1.74860 | 33950 ft | 445 kts | 1° |
| 2026-05-05 19:59 | 48.70009 | -1.74931 | 33934 ft | 446 kts | 1° |
| 2026-05-05 19:59 | 48.76219 | -1.75013 | 33933 ft | 447 kts | 0° |
| 2026-05-05 20:00 | 48.82446 | -1.75103 | 33934 ft | 447 kts | 1° |
| 2026-05-05 20:00 | 48.88674 | -1.75182 | 33946 ft | 448 kts | 1° |
| 2026-05-05 20:01 | 48.94898 | -1.75170 | 33953 ft | 447 kts | 2° |
| 2026-05-05 20:01 | 49.01109 | -1.74886 | 33956 ft | 447 kts | 4° |
| 2026-05-05 20:02 | 49.07285 | -1.74569 | 33951 ft | 446 kts | 3° |
| 2026-05-05 20:02 | 49.13494 | -1.74322 | 33949 ft | 447 kts | 2° |
| 2026-05-05 20:03 | 49.19709 | -1.74099 | 33949 ft | 447 kts | 3° |
| 2026-05-05 20:03 | 49.25924 | -1.73866 | 33951 ft | 447 kts | 3° |
| 2026-05-05 20:04 | 49.32106 | -1.73630 | 33946 ft | 447 kts | 2° |
| 2026-05-05 20:04 | 49.38321 | -1.73389 | 33950 ft | 447 kts | 2° |
| 2026-05-05 20:05 | 49.44542 | -1.73137 | 33952 ft | 447 kts | 3° |
| 2026-05-05 20:05 | 49.50758 | -1.72894 | 33953 ft | 447 kts | 2° |
| 2026-05-05 20:06 | 49.56980 | -1.72647 | 33952 ft | 446 kts | 4° |
| 2026-05-05 20:06 | 49.62979 | -1.70769 | 33956 ft | 443 kts | 21° |
| 2026-05-05 20:07 | 49.68770 | -1.67546 | 33962 ft | 443 kts | 21° |
| 2026-05-05 20:07 | 49.74573 | -1.64355 | 33921 ft | 443 kts | 20° |
| 2026-05-05 20:07 | 49.77481 | -1.62754 | 33354 ft | 443 kts | 20° |
| 2026-05-05 20:08 | 49.80381 | -1.61151 | 32769 ft | 442 kts | 20° |
| 2026-05-05 20:08 | 49.83276 | -1.59546 | 32210 ft | 442 kts | 20° |
| 2026-05-05 20:08 | 49.86177 | -1.57932 | 31653 ft | 443 kts | 20° |
| 2026-05-05 20:08 | 49.89036 | -1.56336 | 31126 ft | 444 kts | 20° |
| 2026-05-05 20:09 | 49.91947 | -1.54710 | 30590 ft | 443 kts | 20° |
| 2026-05-05 20:09 | 49.94833 | -1.53097 | 30076 ft | 440 kts | 20° |
| 2026-05-05 20:09 | 49.97705 | -1.51493 | 29470 ft | 437 kts | 20° |
| 2026-05-05 20:09 | 50.00563 | -1.49903 | 28882 ft | 434 kts | 19° |
| 2026-05-05 20:10 | 50.03413 | -1.48411 | 28290 ft | 430 kts | 18° |
| 2026-05-05 20:10 | 50.06250 | -1.47020 | 27727 ft | 425 kts | 17° |
| 2026-05-05 20:10 | 50.09061 | -1.45688 | 27161 ft | 421 kts | 17° |
| 2026-05-05 20:10 | 50.11820 | -1.44388 | 26622 ft | 416 kts | 17° |
| 2026-05-05 20:11 | 50.14612 | -1.43061 | 26073 ft | 412 kts | 17° |
| 2026-05-05 20:11 | 50.17300 | -1.41766 | 25559 ft | 408 kts | 17° |
| 2026-05-05 20:11 | 50.19997 | -1.40451 | 25032 ft | 405 kts | 17° |
| 2026-05-05 20:11 | 50.22673 | -1.39131 | 24531 ft | 402 kts | 17° |
| 2026-05-05 20:12 | 50.25329 | -1.37820 | 24026 ft | 398 kts | 17° |
| 2026-05-05 20:12 | 50.27956 | -1.36524 | 23539 ft | 394 kts | 17° |
| 2026-05-05 20:12 | 50.30556 | -1.35243 | 22959 ft | 390 kts | 17° |
| 2026-05-05 20:12 | 50.33127 | -1.33971 | 22392 ft | 386 kts | 17° |
| 2026-05-05 20:13 | 50.35675 | -1.32708 | 21826 ft | 383 kts | 17° |
| 2026-05-05 20:13 | 50.38169 | -1.31475 | 21285 ft | 379 kts | 17° |
| 2026-05-05 20:13 | 50.40672 | -1.30239 | 20741 ft | 376 kts | 17° |
| 2026-05-05 20:13 | 50.43159 | -1.29007 | 20214 ft | 374 kts | 17° |
| 2026-05-05 20:14 | 50.45632 | -1.27778 | 19691 ft | 372 kts | 17° |
| 2026-05-05 20:14 | 50.48087 | -1.26542 | 19183 ft | 369 kts | 20° |
| 2026-05-05 20:14 | 50.50406 | -1.24866 | 18672 ft | 366 kts | 30° |
| 2026-05-05 20:14 | 50.52482 | -1.22579 | 18172 ft | 363 kts | 40° |
| 2026-05-05 20:15 | 50.54407 | -1.20036 | 17601 ft | 361 kts | 40° |
| 2026-05-05 20:15 | 50.56319 | -1.17519 | 17045 ft | 357 kts | 39° |
| 2026-05-05 20:15 | 50.58220 | -1.15018 | 16492 ft | 354 kts | 39° |
| 2026-05-05 20:15 | 50.60076 | -1.12570 | 15959 ft | 351 kts | 39° |
| 2026-05-05 20:16 | 50.61962 | -1.10076 | 15423 ft | 348 kts | 39° |
| 2026-05-05 20:16 | 50.63785 | -1.07669 | 14911 ft | 345 kts | 39° |
| 2026-05-05 20:16 | 50.65604 | -1.05208 | 14390 ft | 344 kts | 43° |
| 2026-05-05 20:16 | 50.67188 | -1.02402 | 13892 ft | 343 kts | 50° |
| 2026-05-05 20:17 | 50.68694 | -0.99498 | 13341 ft | 340 kts | 50° |
| 2026-05-05 20:17 | 50.70179 | -0.96634 | 12986 ft | 336 kts | 50° |
| 2026-05-05 20:17 | 50.71665 | -0.93770 | 12947 ft | 337 kts | 50° |
| 2026-05-05 20:17 | 50.73152 | -0.90903 | 12949 ft | 338 kts | 50° |
| 2026-05-05 20:18 | 50.74642 | -0.88027 | 12950 ft | 338 kts | 50° |
| 2026-05-05 20:18 | 50.76116 | -0.85173 | 12944 ft | 328 kts | 50° |
| 2026-05-05 20:18 | 50.77511 | -0.82466 | 12943 ft | 308 kts | 50° |
| 2026-05-05 20:18 | 50.78819 | -0.79925 | 12950 ft | 299 kts | 50° |
| 2026-05-05 20:19 | 50.80112 | -0.77363 | 12950 ft | 298 kts | 54° |
| 2026-05-05 20:19 | 50.81106 | -0.74473 | 12628 ft | 302 kts | 68° |
| 2026-05-05 20:19 | 50.81628 | -0.71242 | 12069 ft | 305 kts | 79° |
| 2026-05-05 20:19 | 50.81993 | -0.67928 | 11504 ft | 307 kts | 78° |
| 2026-05-05 20:20 | 50.82373 | -0.64591 | 10956 ft | 308 kts | 78° |
| 2026-05-05 20:20 | 50.82760 | -0.61255 | 10411 ft | 309 kts | 78° |
| 2026-05-05 20:20 | 50.83154 | -0.57900 | 9859 ft | 310 kts | 78° |
| 2026-05-05 20:20 | 50.83547 | -0.54542 | 9290 ft | 311 kts | 78° |
| 2026-05-05 20:21 | 50.83937 | -0.51185 | 8708 ft | 311 kts | 78° |
| 2026-05-05 20:21 | 50.84324 | -0.47826 | 8138 ft | 310 kts | 78° |
| 2026-05-05 20:21 | 50.84708 | -0.44469 | 7568 ft | 309 kts | 78° |
| 2026-05-05 20:21 | 50.85073 | -0.41250 | 7022 ft | 292 kts | 77° |
| 2026-05-05 20:22 | 50.85421 | -0.38177 | 6480 ft | 276 kts | 77° |
| 2026-05-05 20:22 | 50.85755 | -0.35244 | 5911 ft | 267 kts | 77° |
| 2026-05-05 20:22 | 50.86081 | -0.32371 | 5341 ft | 263 kts | 77° |
| 2026-05-05 20:22 | 50.86403 | -0.29539 | 4780 ft | 260 kts | 77° |
| 2026-05-05 20:23 | 50.86720 | -0.26735 | 4210 ft | 258 kts | 78° |
| 2026-05-05 20:23 | 50.87033 | -0.23967 | 4014 ft | 257 kts | 78° |
| 2026-05-05 20:23 | 50.87560 | -0.21277 | 4003 ft | 255 kts | 59° |
| 2026-05-05 20:23 | 50.88715 | -0.19185 | 4007 ft | 254 kts | 34° |
| 2026-05-05 20:24 | 50.90278 | -0.18100 | 4004 ft | 244 kts | 10° |
| 2026-05-05 20:24 | 50.91903 | -0.18090 | 4005 ft | 227 kts | 354° |
| 2026-05-05 20:24 | 50.93462 | -0.18359 | 4009 ft | 225 kts | 355° |
| 2026-05-05 20:24 | 50.95016 | -0.18613 | 4008 ft | 224 kts | 355° |
| 2026-05-05 20:25 | 50.96540 | -0.19092 | 4009 ft | 225 kts | 340° |
| 2026-05-05 20:25 | 50.97890 | -0.20352 | 4010 ft | 227 kts | 321° |
| 2026-05-05 20:25 | 50.98900 | -0.22284 | 4010 ft | 230 kts | 301° |
| 2026-05-05 20:25 | 50.99461 | -0.24677 | 4011 ft | 233 kts | 287° |
| 2026-05-05 20:26 | 50.99873 | -0.27134 | 3916 ft | 233 kts | 287° |
| 2026-05-05 20:26 | 51.00297 | -0.29616 | 3815 ft | 233 kts | 287° |
| 2026-05-05 20:26 | 51.00721 | -0.32088 | 3707 ft | 232 kts | 287° |
| 2026-05-05 20:26 | 51.01146 | -0.34567 | 3610 ft | 232 kts | 287° |
| 2026-05-05 20:27 | 51.01537 | -0.37050 | 3527 ft | 232 kts | 285° |
| 2026-05-05 20:27 | 51.01904 | -0.39547 | 3425 ft | 232 kts | 285° |
| 2026-05-05 20:27 | 51.02266 | -0.42046 | 3324 ft | 232 kts | 285° |
| 2026-05-05 20:27 | 51.02627 | -0.44538 | 3220 ft | 231 kts | 285° |
| 2026-05-05 20:28 | 51.02988 | -0.47028 | 3114 ft | 231 kts | 284° |
| 2026-05-05 20:28 | 51.03349 | -0.49505 | 3018 ft | 230 kts | 285° |
| 2026-05-05 20:28 | 51.03737 | -0.51981 | 3019 ft | 230 kts | 291° |
| 2026-05-05 20:28 | 51.04665 | -0.53918 | 3015 ft | 225 kts | 330° |
| 2026-05-05 20:29 | 51.06144 | -0.54498 | 3031 ft | 222 kts | 5° |
| 2026-05-05 20:29 | 51.07686 | -0.54248 | 3027 ft | 223 kts | 7° |
| 2026-05-05 20:29 | 51.09174 | -0.53635 | 3018 ft | 222 kts | 31° |
| 2026-05-05 20:29 | 51.10220 | -0.51875 | 3030 ft | 222 kts | 64° |
| 2026-05-05 20:30 | 51.10626 | -0.49499 | 3027 ft | 225 kts | 77° |
| 2026-05-05 20:30 | 51.10937 | -0.47066 | 3030 ft | 225 kts | 77° |
| 2026-05-05 20:30 | 51.11254 | -0.44624 | 3035 ft | 225 kts | 76° |
| 2026-05-05 20:30 | 51.11578 | -0.42248 | 2987 ft | 211 kts | 76° |
| 2026-05-05 20:31 | 51.11880 | -0.40093 | 2723 ft | 192 kts | 76° |
| 2026-05-05 20:31 | 51.12154 | -0.38141 | 2489 ft | 169 kts | 77° |
| 2026-05-05 20:31 | 51.12394 | -0.36425 | 2262 ft | 150 kts | 77° |
| 2026-05-05 20:31 | 51.12615 | -0.34852 | 2060 ft | 141 kts | 77° |
| 2026-05-05 20:32 | 51.12824 | -0.33352 | 1877 ft | 137 kts | 77° |
| 2026-05-05 20:32 | 51.13030 | -0.31882 | 1690 ft | 136 kts | 78° |
| 2026-05-05 20:32 | 51.13233 | -0.30422 | 1494 ft | 134 kts | 78° |
| 2026-05-05 20:32 | 51.13435 | -0.28975 | 1307 ft | 134 kts | 77° |
| 2026-05-05 20:33 | 51.13635 | -0.27536 | 1108 ft | 133 kts | 77° |
| 2026-05-05 20:33 | 51.13835 | -0.26096 | 931 ft | 132 kts | 77° |
| 2026-05-05 20:33 | 51.14033 | -0.24667 | 747 ft | 132 kts | 77° |
| 2026-05-05 20:33 | 51.14238 | -0.23246 | 559 ft | 132 kts | 77° |
| 2026-05-05 20:34 | 51.14440 | -0.21826 | 401 ft | 131 kts | 77° |
| 2026-05-05 20:34 | 51.14625 | -0.20433 | 228 ft | 131 kts | 77° |
| 2026-05-05 20:34 | 51.14793 | -0.19192 | 214 ft | 91 kts | 78° |
| 2026-05-05 20:34 | 51.14887 | -0.18603 | 219 ft | 36 kts | 58° |
| 2026-05-05 20:35 | 51.15039 | -0.18317 | 219 ft | 19 kts | 51° |
| 2026-05-05 20:35 | 51.15047 | -0.18302 | 220 ft | 0 kts | 51° |
| 2026-05-05 20:35 | 51.15052 | -0.18291 | 215 ft | 3 kts | 51° |
| 2026-05-05 20:35 | 51.15076 | -0.18244 | 213 ft | 7 kts | 51° |
| 2026-05-05 20:36 | 51.15120 | -0.18186 | 221 ft | 10 kts | 15° |
| 2026-05-05 20:36 | 51.15194 | -0.18188 | 211 ft | 11 kts | 28° |
| 2026-05-05 20:36 | 51.15210 | -0.18086 | 211 ft | 11 kts | 77° |
| 2026-05-05 20:36 | 51.15232 | -0.17947 | 218 ft | 15 kts | 77° |
| 2026-05-05 20:37 | 51.15257 | -0.17771 | 211 ft | 18 kts | 77° |
| 2026-05-05 20:37 | 51.15276 | -0.17635 | 213 ft | 20 kts | 78° |
| 2026-05-05 20:37 | 51.15310 | -0.17359 | 214 ft | 10 kts | 54° |
| 2026-05-05 20:37 | 51.15356 | -0.17347 | 215 ft | 7 kts | 38° |
| 2026-05-05 20:38 | 51.15375 | -0.17257 | 221 ft | 11 kts | 73° |
| 2026-05-05 20:38 | 51.15405 | -0.17130 | 220 ft | 14 kts | 67° |
| 2026-05-05 20:38 | 51.15429 | -0.16965 | 210 ft | 17 kts | 77° |
| 2026-05-05 20:38 | 51.15449 | -0.16769 | 219 ft | 17 kts | 100° |
| 2026-05-05 20:39 | 51.15448 | -0.16661 | 219 ft | 0 kts | 71° |
| 2026-05-05 20:39 | 51.15450 | -0.16651 | 210 ft | 3 kts | 75° |
| 2026-05-05 20:39 | 51.15457 | -0.16634 | 216 ft | 1 kts | 32° |
| 2026-05-05 20:39 | 51.15470 | -0.16639 | 219 ft | 4 kts | 348° |
| 2026-05-05 20:40 | 51.15509 | -0.16652 | 218 ft | 5 kts | 348° |
| 2026-05-05 20:40 | 51.15513 | -0.16654 | 216 ft | 2 kts | 348° |
| 2026-05-05 20:40 | 51.15523 | -0.16657 | 217 ft | 0 kts | 348° |